sensor_id;sensor_type;location;lat;lon;timestamp;P1;durP1;ratioP1;P2;durP2;ratioP2
55310;SDS011;41173;52.634;-8.666;2024-01-10T16:44:34;0.00;;;0.00;;
55310;SDS011;41173;52.634;-8.666;2024-01-10T16:49:26;0.00;;;0.00;;
55310;SDS011;41173;52.634;-8.666;2024-01-10T16:51:51;0.00;;;0.00;;
55310;SDS011;41173;52.634;-8.666;2024-01-10T16:54:16;0.00;;;0.00;;
55310;SDS011;41173;52.634;-8.666;2024-01-10T16:56:42;0.00;;;0.00;;
55310;SDS011;41173;52.634;-8.666;2024-01-10T16:59:07;0.00;;;0.00;;
55310;SDS011;41173;52.634;-8.666;2024-01-10T17:01:33;0.00;;;0.00;;
55310;SDS011;41173;52.634;-8.666;2024-01-10T17:03:58;0.00;;;0.00;;
55310;SDS011;41173;52.634;-8.666;2024-01-10T17:06:24;0.00;;;0.00;;
55310;SDS011;41173;52.634;-8.666;2024-01-10T17:08:49;0.00;;;0.00;;
55310;SDS011;41173;52.634;-8.666;2024-01-10T17:11:15;0.00;;;0.00;;
55310;SDS011;41173;52.634;-8.666;2024-01-10T17:13:42;0.00;;;0.00;;
55310;SDS011;41173;52.634;-8.666;2024-01-10T17:16:08;0.00;;;0.00;;
55310;SDS011;41173;52.634;-8.666;2024-01-10T17:18:33;0.00;;;0.00;;
55310;SDS011;41173;52.634;-8.666;2024-01-10T17:20:58;0.00;;;0.00;;
55310;SDS011;41173;52.634;-8.666;2024-01-10T17:23:24;0.00;;;0.00;;
55310;SDS011;41173;52.634;-8.666;2024-01-10T17:25:49;0.00;;;0.00;;
55310;SDS011;41173;52.634;-8.666;2024-01-10T17:28:14;0.00;;;0.00;;
55310;SDS011;41173;52.634;-8.666;2024-01-10T17:30:40;0.10;;;0.00;;
55310;SDS011;41173;52.634;-8.666;2024-01-10T17:33:06;0.10;;;0.10;;
55310;SDS011;41173;52.634;-8.666;2024-01-10T17:35:34;0.10;;;0.10;;
55310;SDS011;41173;52.634;-8.666;2024-01-10T17:38:00;1.10;;;1.00;;
55310;SDS011;41173;52.634;-8.666;2024-01-10T17:40:25;0.37;;;0.37;;
55310;SDS011;41173;52.634;-8.666;2024-01-10T17:42:51;0.30;;;0.30;;
55310;SDS011;41173;52.634;-8.666;2024-01-10T17:45:16;0.43;;;0.37;;
55310;SDS011;41173;52.634;-8.666;2024-01-10T17:47:42;0.70;;;0.70;;
55310;SDS011;41173;52.634;-8.666;2024-01-10T17:50:07;0.57;;;0.57;;
55310;SDS011;41173;52.634;-8.666;2024-01-10T17:52:33;0.57;;;0.40;;
55310;SDS011;41173;52.634;-8.666;2024-01-10T17:54:59;0.50;;;0.50;;
55310;SDS011;41173;52.634;-8.666;2024-01-10T17:57:25;0.57;;;0.50;;
55310;SDS011;41173;52.634;-8.666;2024-01-10T17:59:52;0.50;;;0.50;;
55310;SDS011;41173;52.634;-8.666;2024-01-10T18:02:18;0.70;;;0.60;;
55310;SDS011;41173;52.634;-8.666;2024-01-10T18:04:43;0.40;;;0.40;;
55310;SDS011;41173;52.634;-8.666;2024-01-10T18:07:09;0.63;;;0.50;;
55310;SDS011;41173;52.634;-8.666;2024-01-10T18:09:34;0.73;;;0.70;;
55310;SDS011;41173;52.634;-8.666;2024-01-10T18:12:00;0.70;;;0.50;;
55310;SDS011;41173;52.634;-8.666;2024-01-10T18:14:27;0.30;;;0.30;;
55310;SDS011;41173;52.634;-8.666;2024-01-10T18:16:52;0.40;;;0.40;;
55310;SDS011;41173;52.634;-8.666;2024-01-10T18:19:18;0.60;;;0.60;;
55310;SDS011;41173;52.634;-8.666;2024-01-10T18:21:44;0.40;;;0.40;;
55310;SDS011;41173;52.634;-8.666;2024-01-10T18:24:09;0.80;;;0.60;;
55310;SDS011;41173;52.634;-8.666;2024-01-10T18:26:35;0.73;;;0.73;;
55310;SDS011;41173;52.634;-8.666;2024-01-10T18:29:00;0.60;;;0.60;;
55310;SDS011;41173;52.634;-8.666;2024-01-10T18:31:26;0.60;;;0.60;;
55310;SDS011;41173;52.634;-8.666;2024-01-10T18:33:52;0.40;;;0.40;;
55310;SDS011;41173;52.634;-8.666;2024-01-10T18:36:18;0.20;;;0.20;;
55310;SDS011;41173;52.634;-8.666;2024-01-10T18:38:44;0.20;;;0.20;;
55310;SDS011;41173;52.634;-8.666;2024-01-10T18:41:09;0.10;;;0.10;;
55310;SDS011;41173;52.634;-8.666;2024-01-10T18:43:35;0.10;;;0.10;;
55310;SDS011;41173;52.634;-8.666;2024-01-10T18:46:00;0.10;;;0.10;;
55310;SDS011;41173;52.634;-8.666;2024-01-10T18:48:26;0.10;;;0.10;;
55310;SDS011;41173;52.634;-8.666;2024-01-10T18:50:53;0.10;;;0.10;;
55310;SDS011;41173;52.634;-8.666;2024-01-10T18:53:18;0.10;;;0.10;;
55310;SDS011;41173;52.634;-8.666;2024-01-10T18:55:44;0.30;;;0.20;;
55310;SDS011;41173;52.634;-8.666;2024-01-10T18:58:09;0.10;;;0.10;;
55310;SDS011;41173;52.634;-8.666;2024-01-10T19:00:38;0.10;;;0.10;;
55310;SDS011;41173;52.634;-8.666;2024-01-10T19:03:07;0.10;;;0.10;;
55310;SDS011;41173;52.634;-8.666;2024-01-10T19:05:33;0.10;;;0.10;;
55310;SDS011;41173;52.634;-8.666;2024-01-10T19:07:58;0.10;;;0.10;;
55310;SDS011;41173;52.634;-8.666;2024-01-10T19:10:24;0.10;;;0.10;;
55310;SDS011;41173;52.634;-8.666;2024-01-10T19:12:49;0.10;;;0.10;;
55310;SDS011;41173;52.634;-8.666;2024-01-10T19:15:15;0.10;;;0.10;;
55310;SDS011;41173;52.634;-8.666;2024-01-10T19:17:40;0.22;;;0.20;;
55310;SDS011;41173;52.634;-8.666;2024-01-10T19:20:06;0.10;;;0.10;;
55310;SDS011;41173;52.634;-8.666;2024-01-10T19:22:33;0.10;;;0.10;;
55310;SDS011;41173;52.634;-8.666;2024-01-10T19:24:58;0.10;;;0.10;;
55310;SDS011;41173;52.634;-8.666;2024-01-10T19:27:23;0.10;;;0.10;;
55310;SDS011;41173;52.634;-8.666;2024-01-10T19:29:49;0.10;;;0.10;;
55310;SDS011;41173;52.634;-8.666;2024-01-10T19:32:15;0.10;;;0.10;;
55310;SDS011;41173;52.634;-8.666;2024-01-10T19:34:40;0.13;;;0.13;;
55310;SDS011;41173;52.634;-8.666;2024-01-10T19:37:07;0.10;;;0.10;;
55310;SDS011;41173;52.634;-8.666;2024-01-10T19:39:33;0.10;;;0.10;;
55310;SDS011;41173;52.634;-8.666;2024-01-10T19:41:59;0.20;;;0.20;;
55310;SDS011;41173;52.634;-8.666;2024-01-10T19:44:25;0.20;;;0.17;;
55310;SDS011;41173;52.634;-8.666;2024-01-10T19:46:50;0.30;;;0.17;;
55310;SDS011;41173;52.634;-8.666;2024-01-10T19:49:16;0.10;;;0.10;;
55310;SDS011;41173;52.634;-8.666;2024-01-10T19:51:42;0.20;;;0.20;;
55310;SDS011;41173;52.634;-8.666;2024-01-10T19:54:10;0.10;;;0.10;;
55310;SDS011;41173;52.634;-8.666;2024-01-10T19:56:35;0.20;;;0.20;;
55310;SDS011;41173;52.634;-8.666;2024-01-10T19:59:01;0.40;;;0.20;;
55310;SDS011;41173;52.634;-8.666;2024-01-10T20:01:26;0.33;;;0.33;;
55310;SDS011;41173;52.634;-8.666;2024-01-10T20:03:52;0.50;;;0.40;;
55310;SDS011;41173;52.634;-8.666;2024-01-10T20:06:17;0.40;;;0.40;;
55310;SDS011;41173;52.634;-8.666;2024-01-10T20:08:43;0.20;;;0.20;;
55310;SDS011;41173;52.634;-8.666;2024-01-10T20:11:09;0.25;;;0.25;;
55310;SDS011;41173;52.634;-8.666;2024-01-10T20:13:35;0.20;;;0.20;;
55310;SDS011;41173;52.634;-8.666;2024-01-10T20:16:00;0.10;;;0.10;;
55310;SDS011;41173;52.634;-8.666;2024-01-10T20:18:28;0.10;;;0.10;;
55310;SDS011;41173;52.634;-8.666;2024-01-10T20:20:53;0.10;;;0.10;;
55310;SDS011;41173;52.634;-8.666;2024-01-10T20:23:19;0.10;;;0.10;;
55310;SDS011;41173;52.634;-8.666;2024-01-10T20:25:44;0.07;;;0.07;;
55310;SDS011;41173;52.634;-8.666;2024-01-10T20:28:11;0.00;;;0.00;;
55310;SDS011;41173;52.634;-8.666;2024-01-10T20:30:37;0.03;;;0.00;;
55310;SDS011;41173;52.634;-8.666;2024-01-10T20:33:03;0.00;;;0.00;;
55310;SDS011;41173;52.634;-8.666;2024-01-10T20:35:28;0.03;;;0.00;;
55310;SDS011;41173;52.634;-8.666;2024-01-10T20:37:54;0.10;;;0.10;;
55310;SDS011;41173;52.634;-8.666;2024-01-10T20:40:21;0.10;;;0.10;;
55310;SDS011;41173;52.634;-8.666;2024-01-10T20:42:47;0.00;;;0.00;;
55310;SDS011;41173;52.634;-8.666;2024-01-10T20:45:12;0.00;;;0.00;;
55310;SDS011;41173;52.634;-8.666;2024-01-10T20:47:41;0.00;;;0.00;;
55310;SDS011;41173;52.634;-8.666;2024-01-10T20:52:34;0.10;;;0.00;;
55310;SDS011;41173;52.634;-8.666;2024-01-10T20:54:59;0.03;;;0.00;;
55310;SDS011;41173;52.634;-8.666;2024-01-10T20:57:25;0.10;;;0.10;;
55310;SDS011;41173;52.634;-8.666;2024-01-10T20:59:50;0.03;;;0.00;;
55310;SDS011;41173;52.634;-8.666;2024-01-10T21:02:15;0.10;;;0.10;;
55310;SDS011;41173;52.634;-8.666;2024-01-10T21:04:41;0.00;;;0.00;;
55310;SDS011;41173;52.634;-8.666;2024-01-10T21:07:07;0.00;;;0.00;;
55310;SDS011;41173;52.634;-8.666;2024-01-10T21:09:34;0.00;;;0.00;;
55310;SDS011;41173;52.634;-8.666;2024-01-10T21:12:00;0.00;;;0.00;;
55310;SDS011;41173;52.634;-8.666;2024-01-10T21:14:26;0.10;;;0.00;;
55310;SDS011;41173;52.634;-8.666;2024-01-10T21:16:51;0.00;;;0.00;;
55310;SDS011;41173;52.634;-8.666;2024-01-10T21:19:17;0.10;;;0.10;;
55310;SDS011;41173;52.634;-8.666;2024-01-10T21:21:46;0.10;;;0.10;;
55310;SDS011;41173;52.634;-8.666;2024-01-10T21:24:13;2.20;;;0.30;;
55310;SDS011;41173;52.634;-8.666;2024-01-10T21:26:41;0.20;;;0.20;;
55310;SDS011;41173;52.634;-8.666;2024-01-10T21:29:07;0.10;;;0.10;;
55310;SDS011;41173;52.634;-8.666;2024-01-10T21:31:33;0.10;;;0.10;;
55310;SDS011;41173;52.634;-8.666;2024-01-10T21:33:58;0.13;;;0.10;;
55310;SDS011;41173;52.634;-8.666;2024-01-10T21:36:24;0.00;;;0.00;;
55310;SDS011;41173;52.634;-8.666;2024-01-10T21:38:49;0.00;;;0.00;;
55310;SDS011;41173;52.634;-8.666;2024-01-10T21:41:14;0.00;;;0.00;;
55310;SDS011;41173;52.634;-8.666;2024-01-10T21:43:41;0.10;;;0.00;;
55310;SDS011;41173;52.634;-8.666;2024-01-10T21:46:07;0.00;;;0.00;;
55310;SDS011;41173;52.634;-8.666;2024-01-10T21:48:32;0.00;;;0.00;;
55310;SDS011;41173;52.634;-8.666;2024-01-10T21:50:58;0.00;;;0.00;;
55310;SDS011;41173;52.634;-8.666;2024-01-10T21:53:24;0.00;;;0.00;;
55310;SDS011;41173;52.634;-8.666;2024-01-10T21:55:50;0.00;;;0.00;;
55310;SDS011;41173;52.634;-8.666;2024-01-10T21:58:15;0.00;;;0.00;;
55310;SDS011;41173;52.634;-8.666;2024-01-10T22:00:41;0.00;;;0.00;;
55310;SDS011;41173;52.634;-8.666;2024-01-10T22:03:06;0.00;;;0.00;;
55310;SDS011;41173;52.634;-8.666;2024-01-10T22:05:32;0.10;;;0.10;;
55310;SDS011;41173;52.634;-8.666;2024-01-10T22:07:57;0.00;;;0.00;;
55310;SDS011;41173;52.634;-8.666;2024-01-10T22:10:23;0.20;;;0.10;;
55310;SDS011;41173;52.634;-8.666;2024-01-10T22:12:48;0.10;;;0.10;;
55310;SDS011;41173;52.634;-8.666;2024-01-10T22:15:14;0.00;;;0.00;;
55310;SDS011;41173;52.634;-8.666;2024-01-10T22:17:39;0.10;;;0.00;;
55310;SDS011;41173;52.634;-8.666;2024-01-10T22:20:05;0.00;;;0.00;;
55310;SDS011;41173;52.634;-8.666;2024-01-10T22:22:31;0.00;;;0.00;;
55310;SDS011;41173;52.634;-8.666;2024-01-10T22:24:56;0.00;;;0.00;;
55310;SDS011;41173;52.634;-8.666;2024-01-10T22:27:22;0.00;;;0.00;;
55310;SDS011;41173;52.634;-8.666;2024-01-10T22:29:48;0.00;;;0.00;;
55310;SDS011;41173;52.634;-8.666;2024-01-10T22:32:14;0.00;;;0.00;;
55310;SDS011;41173;52.634;-8.666;2024-01-10T22:34:39;0.10;;;0.00;;
55310;SDS011;41173;52.634;-8.666;2024-01-10T22:37:05;0.10;;;0.10;;
55310;SDS011;41173;52.634;-8.666;2024-01-10T22:39:30;0.10;;;0.00;;
55310;SDS011;41173;52.634;-8.666;2024-01-10T22:41:56;0.00;;;0.00;;
55310;SDS011;41173;52.634;-8.666;2024-01-10T22:44:21;0.00;;;0.00;;
55310;SDS011;41173;52.634;-8.666;2024-01-10T22:46:46;0.17;;;0.10;;
55310;SDS011;41173;52.634;-8.666;2024-01-10T22:49:12;0.00;;;0.00;;
55310;SDS011;41173;52.634;-8.666;2024-01-10T22:51:39;0.00;;;0.00;;
55310;SDS011;41173;52.634;-8.666;2024-01-10T22:54:04;0.00;;;0.00;;
55310;SDS011;41173;52.634;-8.666;2024-01-10T22:56:30;0.00;;;0.00;;
55310;SDS011;41173;52.634;-8.666;2024-01-10T22:58:55;0.00;;;0.00;;
55310;SDS011;41173;52.634;-8.666;2024-01-10T23:01:21;0.00;;;0.00;;
55310;SDS011;41173;52.634;-8.666;2024-01-10T23:03:46;0.00;;;0.00;;
55310;SDS011;41173;52.634;-8.666;2024-01-10T23:06:12;0.00;;;0.00;;
55310;SDS011;41173;52.634;-8.666;2024-01-10T23:08:37;0.00;;;0.00;;
55310;SDS011;41173;52.634;-8.666;2024-01-10T23:11:02;0.00;;;0.00;;
55310;SDS011;41173;52.634;-8.666;2024-01-10T23:13:28;0.03;;;0.03;;
55310;SDS011;41173;52.634;-8.666;2024-01-10T23:15:53;0.00;;;0.00;;
55310;SDS011;41173;52.634;-8.666;2024-01-10T23:18:19;0.00;;;0.00;;
55310;SDS011;41173;52.634;-8.666;2024-01-10T23:20:45;0.00;;;0.00;;
55310;SDS011;41173;52.634;-8.666;2024-01-10T23:23:11;0.00;;;0.00;;
55310;SDS011;41173;52.634;-8.666;2024-01-10T23:25:36;0.00;;;0.00;;
55310;SDS011;41173;52.634;-8.666;2024-01-10T23:28:02;0.00;;;0.00;;
